Pagina principală
METAR-TAF:

METAR-TAF

Aeroporturi :

Deer Park Airport

Deer Park, Washington, Statele Unite ale Americii

Latitudine: 47-58-27N, longitudine: 117-25-42W, elevație: 672 m

Observații meteo curente

Raportul a fost făcut în urmă cu 47 de minute, la 20:53 UTC
Vânt 9 kt de la Sud-vest
Temperatură 13°C
Umiditate 41%
Presiune 1015 hPa
Vizibilitate: 16.1 km
Total acoperit la o înălțime de 5500 picior

METAR: KDEW 162053Z AUTO 23009KT 10SM OVC055 13/00 A2996 RMK AO2 SLP151 T01330000 58012

Ora: 14:40 (21:40 UTC)


TAF: lipsă

Observații și prognoze meteo pentru peste 4.000 de aeroporturi (rapoarte METAR și TAF).

Stațiile disponibile sunt reprezentate pe hartă prin puncte galbene și roșii.

Țineți indicatorul mouse-ului pe punctul dorit pentru a vedea denumirea stației.

Apoi, faceți clic pentru a vedea observațiile și prognozele meteorologice.

Pentru a schimba harta: Pentru mărire, faceți clic pe butoanele verzi cu cruce neagră; pentru micșorare, pe butonul verde cu o liniuță; pentru hărți învecinate, pe săgețile verzi.


METAR-TAF: